Time;durP1;ratioP1;P1;durP2;ratioP2;P2;SDS_P1;SDS_P2;PMS_P1;PMS_P2;Temp;Humidity;BMP_temperature;BMP_pressure;BME280_temperature;BME280_humidity;BME280_pressure;Samples;Min_cycle;Max_cycle;Signal;HPM_P1;HPM_P2
2022/05/06 00:00:07;;;;;;;;;19.00;17.50;;;;;14.09;63.63;101980.38;5017272;28;46118;-79
2022/05/06 00:02:33;;;;;;;;;23.25;21.00;;;;;13.98;63.72;101963.06;5017208;28;47033;-77
2022/05/06 00:04:58;;;;;;;;;22.00;20.50;;;;;13.90;63.58;101959.03;5007317;28;45412;-77
2022/05/06 00:07:24;;;;;;;;;20.50;19.75;;;;;13.63;64.10;101930.03;5018747;28;45496;-78
2022/05/06 00:09:49;;;;;;;;;22.75;22.50;;;;;13.83;64.13;101970.06;5018058;28;45463;-77
2022/05/06 00:12:18;;;;;;;;;21.25;20.50;;;;;13.76;64.09;101963.28;5016138;28;46191;-78
2022/05/06 00:14:44;;;;;;;;;22.00;20.00;;;;;13.84;63.96;101979.81;5017642;28;45577;-78
2022/05/06 00:17:09;;;;;;;;;20.75;19.25;;;;;13.74;64.44;101965.16;5007848;28;45466;-78
2022/05/06 00:19:35;;;;;;;;;23.00;21.50;;;;;13.77;64.30;101980.19;5018491;28;52857;-78
2022/05/06 00:22:01;;;;;;;;;21.00;19.75;;;;;13.63;64.66;101959.47;5017913;28;46100;-78
2022/05/06 00:24:28;;;;;;;;;23.50;21.75;;;;;13.59;64.88;101952.56;5017981;28;45550;-78
2022/05/06 00:26:54;;;;;;;;;20.75;18.25;;;;;13.67;65.00;101977.09;5016913;28;45496;-78
2022/05/06 00:29:19;;;;;;;;;27.75;22.50;;;;;13.53;64.95;101959.03;5016352;28;46553;-79
2022/05/06 00:31:44;;;;;;;;;25.00;22.00;;;;;13.60;65.25;101976.53;4994799;28;46204;-79
2022/05/06 00:34:10;;;;;;;;;25.25;23.00;;;;;13.54;65.31;101968.81;5017208;28;54142;-77
2022/05/06 00:36:36;;;;;;;;;27.00;23.00;;;;;13.55;65.06;101969.69;5017194;28;45467;-77
2022/05/06 00:39:01;;;;;;;;;22.50;21.50;;;;;13.56;65.23;101979.44;5009302;28;45614;-78
2022/05/06 00:41:27;;;;;;;;;29.00;24.00;;;;;13.57;65.30;101986.53;5009776;28;48184;-79
2022/05/06 00:43:52;;;;;;;;;28.25;24.50;;;;;13.40;65.47;101965.94;5018186;28;45781;-78
2022/05/06 00:46:18;;;;;;;;;25.00;24.00;;;;;13.41;65.71;101973.03;5017435;28;45578;-79
2022/05/06 00:48:48;;;;;;;;;24.75;24.75;;;;;13.51;65.81;101976.13;5017145;28;45637;-77
2022/05/06 00:51:17;;;;;;;;;28.75;24.75;;;;;13.51;65.52;101985.00;5017447;28;45566;-79
2022/05/06 00:53:43;;;;;;;;;27.00;25.75;;;;;13.47;65.38;101970.06;5017582;28;45425;-78
2022/05/06 00:56:11;;;;;;;;;21.25;20.00;;;;;13.45;65.48;101955.03;4997414;28;45456;-77
2022/05/06 00:58:37;;;;;;;;;28.50;28.50;;;;;13.40;65.47;101958.78;5019606;28;45365;-80
2022/05/06 01:01:03;;;;;;;;;24.00;21.50;;;;;13.51;65.77;101973.44;5017679;28;46345;-78
2022/05/06 01:03:30;;;;;;;;;25.50;23.50;;;;;13.54;65.64;101973.28;5018167;28;45687;-78
2022/05/06 01:05:56;;;;;;;;;27.50;24.50;;;;;13.57;65.38;101971.34;5018337;28;45628;-77
2022/05/06 01:08:21;;;;;;;;;35.25;28.50;;;;;13.54;65.71;101971.50;4998275;28;45578;-78
2022/05/06 01:10:47;;;;;;;;;27.25;23.75;;;;;13.31;65.82;101948.53;5015873;28;46284;-78
2022/05/06 01:13:13;;;;;;;;;28.25;26.25;;;;;13.26;66.57;101958.56;5014850;28;45479;-78
2022/05/06 01:15:38;;;;;;;;;29.75;24.00;;;;;13.12;66.57;101935.13;5014151;28;45519;-78
2022/05/06 01:18:04;;;;;;;;;26.75;23.00;;;;;13.34;66.37;101971.56;5015208;28;45452;-79
2022/05/06 01:20:35;;;;;;;;;25.75;23.75;;;;;13.33;66.46;101967.19;5012696;28;45380;-79
2022/05/06 01:23:01;;;;;;;;;27.75;27.75;;;;;13.17;66.80;101949.16;5013032;28;45436;-78
2022/05/06 01:25:27;;;;;;;;;27.50;26.00;;;;;13.26;66.54;101963.03;5001763;28;45518;-79
2022/05/06 01:28:02;;;;;;;;;29.00;27.25;;;;;13.18;66.64;101948.22;5015981;28;45486;-78
2022/05/06 01:30:40;;;;;;;;;29.25;26.50;;;;;13.32;66.34;101960.94;5010215;28;46618;-78
2022/05/06 01:33:07;;;;;;;;;27.00;25.50;;;;;13.34;66.52;101971.56;5015513;28;45479;-78
2022/05/06 01:35:40;;;;;;;;;28.25;24.25;;;;;13.26;67.01;101971.91;5015877;28;45867;-77
2022/05/06 01:38:06;;;;;;;;;29.00;26.50;;;;;12.97;66.77;101936.72;4998100;28;45379;-77
2022/05/06 01:40:37;;;;;;;;;28.25;25.25;;;;;13.06;66.84;101946.13;5016129;28;45324;-77
2022/05/06 01:43:07;;;;;;;;;28.25;25.50;;;;;13.17;66.80;101965.19;5015393;28;45377;-77
2022/05/06 01:45:34;;;;;;;;;23.75;23.50;;;;;13.25;66.80;101978.19;5000484;28;45576;-78
2022/05/06 01:48:02;;;;;;;;;28.00;26.00;;;;;13.20;67.05;101978.44;5015725;28;45760;-79
2022/05/06 01:50:28;;;;;;;;;30.75;27.75;;;;;13.03;67.10;101956.09;5012126;28;45633;-79
2022/05/06 01:52:56;;;;;;;;;29.00;27.00;;;;;13.04;67.28;101965.88;5012978;28;45414;-78
2022/05/06 01:55:22;;;;;;;;;29.50;29.50;;;;;13.15;67.35;101976.91;5015784;28;45523;-78
2022/05/06 01:57:47;;;;;;;;;29.25;24.75;;;;;13.11;67.39;101975.34;5015150;28;45388;-79
2022/05/06 02:00:13;;;;;;;;;26.50;26.00;;;;;12.86;67.78;101949.72;5014832;28;50195;-79
2022/05/06 02:02:39;;;;;;;;;30.50;29.00;;;;;12.96;68.04;101969.75;5015039;28;45361;-79
2022/05/06 02:05:17;;;;;;;;;29.00;28.50;;;;;12.78;67.99;101955.41;5015619;28;45353;-78
2022/05/06 02:07:50;;;;;;;;;32.00;28.00;;;;;12.87;67.92;101967.50;5016178;28;45600;-78
2022/05/06 02:10:17;;;;;;;;;26.00;25.75;;;;;12.64;68.35;101946.31;5000630;28;48295;-79
2022/05/06 02:12:44;;;;;;;;;29.00;28.00;;;;;12.67;68.53;101960.38;5014966;28;45450;-79
2022/05/06 02:15:13;;;;;;;;;28.75;27.50;;;;;12.71;68.79;101961.97;5014777;28;45428;-79
2022/05/06 02:17:39;;;;;;;;;33.00;28.00;;;;;12.77;68.51;101980.41;5015454;28;45569;-79
2022/05/06 02:20:07;;;;;;;;;29.00;26.00;;;;;12.68;68.83;101970.16;5015010;28;45632;-78
2022/05/06 02:22:33;;;;;;;;;28.00;26.75;;;;;12.81;68.74;101982.94;5015560;28;45435;-77
2022/05/06 02:24:58;;;;;;;;;34.25;29.00;;;;;12.79;68.75;101985.69;4997878;28;45381;-78
2022/05/06 02:27:23;;;;;;;;;33.25;28.50;;;;;12.66;68.36;101952.44;5014943;28;46053;-78
2022/05/06 02:35:16;;;;;;;;;28.75;27.25;;;;;12.60;68.72;101956.25;5013625;28;45614;-78
2022/05/06 02:37:42;;;;;;;;;32.00;27.75;;;;;12.66;68.84;101968.47;5015682;28;45426;-77
2022/05/06 02:40:11;;;;;;;;;27.75;24.75;;;;;12.71;68.77;101972.66;5014646;28;46293;-76
2022/05/06 02:42:37;;;;;;;;;31.00;27.00;;;;;12.57;69.12;101964.41;5014634;28;45287;-77
2022/05/06 02:45:03;;;;;;;;;30.00;27.50;;;;;12.51;68.90;101967.38;5014428;28;45522;-77
2022/05/06 02:47:29;;;;;;;;;26.25;24.50;;;;;12.42;69.19;101946.41;5014663;28;45536;-77
2022/05/06 02:49:54;;;;;;;;;29.25;25.50;;;;;12.48;69.65;101967.47;5015302;28;46294;-78
2022/05/06 02:52:20;;;;;;;;;29.50;26.00;;;;;12.40;69.27;101942.94;5014205;28;45372;-78
2022/05/06 02:54:46;;;;;;;;;33.00;29.50;;;;;12.48;69.06;101949.69;5014328;28;45535;-78
2022/05/06 02:57:11;;;;;;;;;27.75;27.00;;;;;12.58;69.33;101974.19;5014452;28;48728;-78
2022/05/06 02:59:37;;;;;;;;;28.75;27.00;;;;;12.56;69.51;101976.91;5014192;28;46351;-80
2022/05/06 03:02:03;;;;;;;;;33.75;28.00;;;;;12.54;69.20;101977.91;5014531;28;45388;-78
2022/05/06 03:04:28;;;;;;;;;28.25;27.75;;;;;12.19;69.41;101926.91;5015027;28;45408;-79
2022/05/06 03:06:53;;;;;;;;;26.25;23.50;;;;;12.44;69.70;101984.59;5014048;28;45542;-79
2022/05/06 03:09:19;;;;;;;;;30.25;26.50;;;;;11.90;69.96;101904.16;5014028;28;45431;-79
2022/05/06 03:11:44;;;;;;;;;33.25;31.00;;;;;12.36;69.99;101982.25;5014091;28;45294;-79
2022/05/06 03:14:09;;;;;;;;;27.00;22.75;;;;;12.34;69.86;101993.00;5014411;28;45421;-79
2022/05/06 03:16:34;;;;;;;;;30.25;28.50;;;;;12.33;70.17;101987.72;5015176;28;45444;-79
2022/05/06 03:19:00;;;;;;;;;32.25;27.50;;;;;12.21;70.06;101965.09;5013657;28;50681;-79
2022/05/06 03:21:26;;;;;;;;;29.00;28.50;;;;;12.13;70.46;101953.88;5013414;28;45512;-79
2022/05/06 03:23:53;;;;;;;;;32.50;29.75;;;;;12.18;70.15;101973.25;5014386;28;45421;-79
2022/05/06 03:26:19;;;;;;;;;32.00;29.25;;;;;12.31;70.46;101978.91;5013879;28;45660;-79
2022/05/06 03:28:44;;;;;;;;;29.25;26.25;;;;;12.24;70.33;101964.09;5014403;28;46028;-79
2022/05/06 03:31:12;;;;;;;;;31.00;30.50;;;;;12.22;70.19;101960.59;5013398;28;46360;-79
2022/05/06 03:33:38;;;;;;;;;32.50;29.25;;;;;12.17;70.18;101957.28;5016584;28;45369;-79
2022/05/06 03:36:04;;;;;;;;;30.00;28.50;;;;;12.28;70.31;101987.06;5014383;28;45354;-79
2022/05/06 03:38:29;;;;;;;;;28.50;27.50;;;;;12.05;70.32;101951.56;5014389;28;46165;-79
2022/05/06 03:40:55;;;;;;;;;37.50;32.25;;;;;12.25;70.63;101988.06;5015487;28;45375;-79
2022/05/06 03:43:20;;;;;;;;;33.25;30.00;;;;;12.22;70.49;101987.31;5013714;28;45544;-79
2022/05/06 03:45:46;;;;;;;;;30.50;26.25;;;;;12.05;70.64;101969.34;5014452;28;45439;-79
2022/05/06 03:48:11;;;;;;;;;29.25;28.25;;;;;12.18;70.71;101988.41;5013831;28;47114;-79
2022/05/06 03:53:23;;;;;;;;;29.50;27.50;;;;;12.06;70.70;101952.41;5014840;28;45344;-79
2022/05/06 03:55:49;;;;;;;;;28.50;27.75;;;;;12.20;70.76;101989.19;5015424;28;45621;-79
2022/05/06 03:58:14;;;;;;;;;36.50;33.25;;;;;12.15;71.00;101989.41;5014334;28;46203;-79
2022/05/06 04:00:40;;;;;;;;;33.50;29.25;;;;;12.14;70.79;101991.16;5014361;28;45317;-79
2022/05/06 04:03:05;;;;;;;;;37.50;31.75;;;;;12.14;70.93;101990.31;5014287;28;45345;-79
2022/05/06 04:05:32;;;;;;;;;33.75;32.00;;;;;12.13;71.18;101999.25;4995476;28;45632;-79
2022/05/06 04:07:59;;;;;;;;;33.75;29.25;;;;;12.07;71.53;101994.16;5014973;28;46213;-79
2022/05/06 04:10:24;;;;;;;;;36.75;32.00;;;;;12.07;71.59;101991.50;5014475;28;45281;-79
2022/05/06 04:12:50;;;;;;;;;37.25;33.25;;;;;12.04;71.64;101988.97;5014510;28;45289;-79
2022/05/06 04:15:15;;;;;;;;;30.50;27.50;;;;;12.01;71.31;101995.31;5014150;28;49446;-79
2022/05/06 04:17:40;;;;;;;;;29.75;28.50;;;;;11.90;71.24;101974.41;5014357;28;46139;-79
2022/05/06 04:25:34;;;;;;;;;29.75;29.50;;;;;12.07;71.32;101999.50;5014832;28;45467;-79
2022/05/06 04:27:59;;;;;;;;;31.25;27.00;;;;;12.03;71.06;101987.25;5013963;28;46123;-79
2022/05/06 04:30:24;;;;;;;;;33.50;30.00;;;;;12.12;71.42;102011.75;5014113;28;45321;-80
2022/05/06 04:32:50;;;;;;;;;33.75;29.25;;;;;12.08;71.23;102001.25;5013775;28;46857;-79
2022/05/06 04:35:15;;;;;;;;;31.50;31.00;;;;;11.91;71.19;101967.28;5013638;28;46548;-80
2022/05/06 04:37:41;;;;;;;;;31.00;29.25;;;;;12.00;71.29;101993.59;5014064;28;46468;-79
2022/05/06 04:40:07;;;;;;;;;33.00;31.25;;;;;12.12;71.19;102013.53;5013427;28;45373;-80
2022/05/06 04:42:32;;;;;;;;;33.25;31.00;;;;;11.96;71.34;101993.78;5013688;28;45551;-79
2022/05/06 04:44:57;;;;;;;;;32.00;26.75;;;;;12.03;71.59;102001.47;5015963;28;45349;-79
2022/05/06 04:47:23;;;;;;;;;32.00;29.00;;;;;12.20;71.04;102030.09;5001252;28;45390;-79
2022/05/06 04:49:48;;;;;;;;;32.75;28.50;;;;;12.11;71.43;102011.81;5017476;28;45495;-79
2022/05/06 04:52:13;;;;;;;;;30.75;30.00;;;;;12.22;71.15;102020.25;5016870;28;45458;-79
2022/05/06 04:54:39;;;;;;;;;28.50;28.25;;;;;12.22;71.14;102014.00;5016550;28;47783;-79
2022/05/06 04:57:05;;;;;;;;;35.50;27.25;;;;;12.29;71.09;102028.81;5016358;28;55748;-79
2022/05/06 04:59:31;;;;;;;;;34.00;32.00;;;;;12.24;71.19;102025.50;5016662;28;45547;-79
2022/05/06 05:01:56;;;;;;;;;27.00;26.00;;;;;12.08;71.26;102004.78;5017262;28;45433;-79
2022/05/06 05:04:27;;;;;;;;;34.75;32.00;;;;;12.28;71.32;102029.78;5016259;28;57059;-79
2022/05/06 05:06:54;;;;;;;;;30.00;29.00;;;;;12.31;71.30;102037.66;5016491;28;47190;-79
2022/05/06 05:09:20;;;;;;;;;33.50;29.00;;;;;12.15;71.34;102006.28;5016628;28;45274;-79
2022/05/06 05:11:45;;;;;;;;;36.50;31.00;;;;;12.11;71.48;102010.00;5016674;28;45473;-80
2022/05/06 05:14:10;;;;;;;;;33.75;29.25;;;;;12.24;71.64;102026.38;5016749;28;45585;-79
2022/05/06 05:16:35;;;;;;;;;34.00;29.50;;;;;12.20;71.55;102024.78;5017207;28;45572;-79
2022/05/06 05:19:01;;;;;;;;;35.00;28.50;;;;;12.05;71.45;101994.25;5016506;28;45405;-79
2022/05/06 05:21:26;;;;;;;;;39.50;33.00;;;;;12.13;71.61;102001.94;5016322;28;45586;-79
2022/05/06 05:23:52;;;;;;;;;47.50;35.00;;;;;12.29;71.79;102039.50;5016900;28;45439;-79
2022/05/06 05:26:17;;;;;;;;;32.25;31.50;;;;;12.29;71.66;102037.72;5014777;28;47388;-79
2022/05/06 05:28:42;;;;;;;;;30.25;29.25;;;;;12.25;71.48;102025.44;5017615;28;45401;-79
2022/05/06 05:31:08;;;;;;;;;32.75;29.75;;;;;12.09;71.61;101993.16;4999070;28;45396;-79
2022/05/06 05:33:33;;;;;;;;;37.75;31.75;;;;;12.39;71.44;102048.88;4998841;28;45325;-79
2022/05/06 05:35:59;;;;;;;;;31.25;30.75;;;;;12.30;71.25;102031.44;4998897;28;46993;-79
2022/05/06 05:38:24;;;;;;;;;40.50;32.75;;;;;12.39;71.64;102040.88;5016911;28;45394;-79
2022/05/06 05:40:49;;;;;;;;;39.50;35.00;;;;;12.25;71.62;102017.44;4999694;28;45381;-80
2022/05/06 05:48:43;;;;;;;;;33.50;32.25;;;;;12.47;71.32;102036.06;5016386;28;45527;-79
2022/05/06 05:51:09;;;;;;;;;41.50;33.50;;;;;12.35;71.23;102021.44;5013343;28;45404;-79
2022/05/06 05:53:34;;;;;;;;;31.50;30.25;;;;;12.44;71.32;102025.53;5016745;28;45654;-79
2022/05/06 05:55:59;;;;;;;;;36.25;31.50;;;;;12.52;71.16;102027.84;5016077;28;45313;-79
2022/05/06 05:58:26;;;;;;;;;36.00;31.75;;;;;12.53;71.11;102037.59;5016603;28;45465;-79
2022/05/06 06:00:52;;;;;;;;;37.00;31.50;;;;;12.49;71.10;102028.84;5015791;28;45829;-79
2022/05/06 06:03:17;;;;;;;;;39.75;32.00;;;;;12.52;71.30;102025.19;5015713;28;45851;-79
2022/05/06 06:05:42;;;;;;;;;31.50;29.50;;;;;12.67;71.01;102047.69;4998005;28;48029;-79
2022/05/06 06:08:08;;;;;;;;;42.75;34.25;;;;;12.61;71.49;102038.16;5016315;28;45438;-79
2022/05/06 06:10:33;;;;;;;;;38.75;33.25;;;;;12.47;71.11;102019.19;5016785;28;45459;-79
2022/05/06 06:13:00;;;;;;;;;37.75;27.25;;;;;12.58;71.28;102033.81;5015832;28;45464;-79
2022/05/06 06:15:26;;;;;;;;;37.50;33.25;;;;;12.73;70.90;102042.09;5014337;28;48141;-79
2022/05/06 06:17:51;;;;;;;;;43.00;33.75;;;;;12.76;71.19;102039.25;5015820;28;45415;-79
2022/05/06 06:20:17;;;;;;;;;43.00;35.00;;;;;12.80;71.23;102040.88;5015780;28;45309;-80
2022/05/06 06:22:42;;;;;;;;;40.25;30.75;;;;;12.86;71.13;102045.06;5016642;28;45491;-79
2022/05/06 06:25:08;;;;;;;;;42.50;37.25;;;;;12.87;70.90;102047.69;5012932;28;48444;-79
2022/05/06 06:27:34;;;;;;;;;42.25;33.50;;;;;12.93;70.83;102052.72;5015362;28;45479;-80
2022/05/06 06:29:59;;;;;;;;;32.50;31.00;;;;;12.87;70.59;102033.44;5015676;28;45476;-80
2022/05/06 06:32:25;;;;;;;;;36.50;33.50;;;;;13.06;70.64;102055.75;5013850;28;45518;-79
2022/05/06 06:34:52;;;;;;;;;35.00;31.00;;;;;12.88;70.47;102021.81;5008708;28;45460;-79
2022/05/06 06:37:19;;;;;;;;;41.75;33.25;;;;;13.01;70.18;102039.00;5011819;28;45707;-79
2022/05/06 06:39:44;;;;;;;;;44.25;36.75;;;;;13.01;70.50;102031.00;5015392;28;45456;-79
2022/05/06 06:42:10;;;;;;;;;45.50;34.75;;;;;13.19;69.89;102053.38;5015417;28;45423;-79
2022/05/06 06:44:36;;;;;;;;;39.00;34.50;;;;;13.12;70.22;102052.78;5015403;28;45856;-78
2022/05/06 06:47:07;;;;;;;;;41.25;31.00;;;;;13.20;70.30;102055.97;5011467;28;45606;-79
2022/05/06 06:49:33;;;;;;;;;40.50;34.00;;;;;13.32;69.89;102064.38;5014614;28;45507;-79
2022/05/06 06:51:58;;;;;;;;;37.75;34.00;;;;;13.15;69.94;102041.06;5013255;28;45414;-79
2022/05/06 06:54:24;;;;;;;;;39.00;34.50;;;;;13.31;69.68;102058.19;5013129;28;47279;-80
2022/05/06 06:56:49;;;;;;;;;41.00;33.00;;;;;13.43;69.35;102060.28;5014222;28;45572;-80
2022/05/06 06:59:14;;;;;;;;;39.00;33.25;;;;;13.43;69.77;102054.06;5008206;28;45409;-80
2022/05/06 07:01:39;;;;;;;;;33.75;31.50;;;;;13.52;69.56;102059.00;4998073;28;45470;-80
2022/05/06 07:04:05;;;;;;;;;34.25;31.75;;;;;13.53;68.95;102055.34;5014655;28;55900;-80
2022/05/06 07:11:58;;;;;;;;;38.25;31.75;;;;;13.75;68.50;102060.53;5014905;28;45315;-79
2022/05/06 07:14:29;;;;;;;;;33.25;32.00;;;;;13.70;68.24;102045.66;5004758;28;46380;-79
2022/05/06 07:16:54;;;;;;;;;37.25;30.50;;;;;13.67;68.01;102029.75;4997912;28;45325;-79
2022/05/06 07:19:20;;;;;;;;;30.25;27.25;;;;;13.92;67.83;102066.91;5009324;28;46792;-80
2022/05/06 07:21:46;;;;;;;;;33.00;31.25;;;;;13.96;67.54;102074.69;5008758;28;45409;-81
2022/05/06 07:24:12;;;;;;;;;31.75;27.25;;;;;13.90;67.33;102058.94;5005507;28;46016;-80
2022/05/06 07:26:37;;;;;;;;;26.75;26.50;;;;;13.89;67.77;102051.00;5007664;28;45339;-80
2022/05/06 07:29:02;;;;;;;;;31.50;26.75;;;;;14.05;67.61;102058.19;5014802;28;45333;-80
2022/05/06 07:31:28;;;;;;;;;31.75;29.25;;;;;14.15;67.76;102071.13;5015443;28;45611;-81
2022/05/06 07:33:54;;;;;;;;;30.50;28.25;;;;;14.24;67.13;102070.69;5014562;28;45433;-80
2022/05/06 07:36:19;;;;;;;;;30.50;29.50;;;;;14.10;67.09;102049.06;5012494;28;45512;-80
2022/05/06 07:38:45;;;;;;;;;27.50;25.50;;;;;14.34;67.13;102084.47;5013450;28;45461;-80
2022/05/06 07:41:10;;;;;;;;;26.50;25.00;;;;;14.30;66.63;102072.16;5013594;28;45335;-81
2022/05/06 07:43:36;;;;;;;;;29.75;28.75;;;;;14.47;66.74;102086.44;5013255;28;45820;-82
2022/05/06 07:46:01;;;;;;;;;28.25;27.25;;;;;14.57;66.85;102092.22;5014098;28;45435;-81
2022/05/06 07:48:27;;;;;;;;;27.25;21.25;;;;;14.64;66.33;102085.59;5010626;28;45557;-80
2022/05/06 07:50:52;;;;;;;;;25.00;21.75;;;;;14.61;66.46;102068.81;5001519;28;45586;-80
2022/05/06 07:53:19;;;;;;;;;27.50;27.50;;;;;14.71;66.18;102075.44;5013471;28;46358;-80
2022/05/06 07:55:45;;;;;;;;;24.25;23.00;;;;;14.82;65.81;102077.56;5002423;28;45251;-80
2022/05/06 07:58:10;;;;;;;;;27.75;27.75;;;;;14.81;65.52;102070.47;5009511;28;49693;-80
2022/05/06 08:00:36;;;;;;;;;24.00;22.25;;;;;14.85;65.30;102067.53;5010718;28;45539;-79
2022/05/06 08:05:47;;;;;;;;;25.50;25.50;;;;;14.97;64.68;102073.22;5010881;28;46566;-79
2022/05/06 08:08:13;;;;;;;;;30.50;27.00;;;;;15.03;64.51;102073.75;5012629;28;45364;-80
2022/05/06 08:10:39;;;;;;;;;26.00;24.75;;;;;14.91;64.74;102045.78;5010236;28;45431;-80
2022/05/06 08:13:05;;;;;;;;;22.75;22.50;;;;;14.82;64.52;102021.28;5012646;28;46461;-80
2022/05/06 08:15:30;;;;;;;;;20.25;20.25;;;;;15.10;64.56;102052.81;5011555;28;45847;-80
2022/05/06 08:17:56;;;;;;;;;26.00;24.00;;;;;15.21;64.38;102055.78;5013636;28;45407;-80
2022/05/06 08:20:21;;;;;;;;;19.75;18.75;;;;;15.26;64.36;102059.06;5016215;28;45365;-81
2022/05/06 08:22:46;;;;;;;;;18.75;18.75;;;;;15.36;64.15;102064.81;5014246;28;45397;-80
2022/05/06 08:25:12;;;;;;;;;21.25;20.00;;;;;15.41;64.27;102052.00;5014894;28;45464;-80
2022/05/06 08:27:42;;;;;;;;;21.50;20.25;;;;;15.53;64.20;102059.38;5016548;28;45590;-80
2022/05/06 08:30:10;;;;;;;;;20.50;19.25;;;;;15.68;63.14;102072.88;5017482;28;45323;-81
2022/05/06 08:32:35;;;;;;;;;22.75;21.75;;;;;15.69;62.61;102062.06;5011575;28;47199;-80
2022/05/06 08:35:03;;;;;;;;;20.50;20.50;;;;;15.79;62.84;102062.44;5013755;28;45480;-81
2022/05/06 08:37:28;;;;;;;;;27.00;23.00;;;;;15.82;61.68;102056.03;4998506;28;45559;-80
2022/05/06 08:39:54;;;;;;;;;17.00;15.75;;;;;15.89;61.65;102058.28;5009152;28;45378;-81
2022/05/06 08:42:21;;;;;;;;;17.75;16.25;;;;;16.06;61.36;102070.72;5008638;28;47550;-81
2022/05/06 08:53:03;;;;;;;;;12.50;12.50;;;;;16.37;59.57;102063.56;5014177;28;45845;-80
2022/05/06 08:55:28;;;;;;;;;12.25;12.25;;;;;16.37;59.76;102042.91;5016461;28;45496;-80
2022/05/06 08:57:54;;;;;;;;;13.25;13.25;;;;;16.51;59.59;102054.69;5009095;28;45665;-80
2022/05/06 09:00:24;;;;;;;;;13.75;13.25;;;;;16.53;58.90;102044.72;5012862;28;45540;-81
2022/05/06 09:02:50;;;;;;;;;11.75;11.75;;;;;16.70;58.50;102062.50;4999350;28;46380;-80
2022/05/06 09:05:19;;;;;;;;;16.25;12.00;;;;;16.85;58.27;102068.81;5016884;28;45330;-81
2022/05/06 09:08:00;;;;;;;;;14.25;12.50;;;;;16.84;58.91;102049.13;5017580;28;45556;-80
2022/05/06 09:10:26;;;;;;;;;16.25;16.25;;;;;16.87;58.18;102037.31;5016029;28;45361;-80
2022/05/06 09:12:55;;;;;;;;;14.00;12.00;;;;;17.01;57.68;102061.53;5016304;28;46286;-81
2022/05/06 09:18:08;;;;;;;;;12.00;11.25;;;;;17.07;57.77;102041.44;5016959;28;45400;-81
2022/05/06 09:20:34;;;;;;;;;15.50;12.00;;;;;17.18;56.71;102050.56;5016536;28;45504;-81
2022/05/06 09:23:17;;;;;;;;;16.25;14.75;;;;;17.09;56.58;102037.69;5017037;28;46314;-81
2022/05/06 09:25:46;;;;;;;;;11.25;11.25;;;;;17.29;57.24;102052.56;5017486;28;45407;-81
2022/05/06 09:28:32;;;;;;;;;8.75;8.50;;;;;17.21;56.51;102011.81;5016884;28;45354;-81
2022/05/06 09:31:00;;;;;;;;;10.00;10.00;;;;;17.48;56.52;102043.31;5015799;28;45354;-81
2022/05/06 09:33:28;;;;;;;;;8.25;8.25;;;;;17.54;55.74;102038.41;5016650;28;46202;-81
2022/05/06 09:35:54;;;;;;;;;7.25;6.25;;;;;17.66;54.79;102044.81;5016379;28;45397;-81
2022/05/06 09:38:21;;;;;;;;;8.25;8.25;;;;;17.64;53.77;102019.81;5016838;28;45452;-80
2022/05/06 09:40:47;;;;;;;;;8.50;8.50;;;;;17.88;53.39;102038.91;4999558;28;45507;-81
2022/05/06 09:43:17;;;;;;;;;8.25;8.25;;;;;17.94;53.35;102038.50;5015603;28;45541;-81
2022/05/06 09:45:44;;;;;;;;;7.75;7.75;;;;;18.00;53.27;102034.56;5016584;28;45487;-81
2022/05/06 09:48:13;;;;;;;;;8.25;7.00;;;;;18.09;52.28;102039.34;4998399;28;45390;-81
2022/05/06 09:50:44;;;;;;;;;9.75;8.25;;;;;18.03;52.21;102015.47;4997829;28;45523;-81
2022/05/06 09:53:11;;;;;;;;;9.75;9.75;;;;;18.05;51.46;102011.72;5015860;28;45587;-79
2022/05/06 09:55:39;;;;;;;;;7.50;7.50;;;;;18.24;50.38;102034.72;4997754;28;45293;-79
2022/05/06 09:58:06;;;;;;;;;6.50;6.25;;;;;18.28;50.61;102034.41;5015779;28;45732;-80
2022/05/06 10:00:34;;;;;;;;;6.00;6.00;;;;;18.38;50.57;102041.88;5015408;28;45464;-80
2022/05/06 10:03:01;;;;;;;;;11.50;8.75;;;;;18.41;50.81;102034.44;5013832;28;46631;-80
2022/05/06 10:05:28;;;;;;;;;5.50;5.50;;;;;18.40;51.57;102018.34;5000750;28;45995;-80
2022/05/06 10:08:00;;;;;;;;;6.75;6.75;;;;;18.48;50.76;102003.38;5012504;28;45446;-80
2022/05/06 10:10:33;;;;;;;;;12.50;9.25;;;;;18.73;49.92;102023.25;5016494;28;45419;-80
2022/05/06 10:13:03;;;;;;;;;7.50;6.00;;;;;18.86;49.56;102028.69;4997934;28;47672;-80
2022/05/06 10:15:30;;;;;;;;;11.75;10.75;;;;;18.88;48.87;102024.91;5015263;28;45409;-80
2022/05/06 10:17:58;;;;;;;;;12.00;10.50;;;;;18.89;48.85;102025.78;5015454;28;45562;-81
2022/05/06 10:20:41;;;;;;;;;9.00;9.00;;;;;18.92;49.01;102025.53;5014510;28;45552;-80
2022/05/06 10:23:08;;;;;;;;;7.00;7.00;;;;;18.97;48.79;102028.78;4997425;28;47519;-80
2022/05/06 10:25:42;;;;;;;;;8.00;7.50;;;;;19.05;48.70;102025.53;4997505;28;45564;-80
2022/05/06 10:34:15;;;;;;;;;9.75;9.25;;;;;19.45;48.23;102022.66;5015622;28;45796;-80
2022/05/06 10:36:45;;;;;;;;;9.00;8.00;;;;;19.49;48.30;102008.81;5015527;28;45654;-81
2022/05/06 10:39:36;;;;;;;;;10.75;10.25;;;;;19.69;47.83;102014.59;5015627;28;45540;-81
2022/05/06 10:42:06;;;;;;;;;8.25;8.25;;;;;19.70;47.66;102001.00;5014727;28;45411;-80
2022/05/06 10:44:34;;;;;;;;;8.00;6.25;;;;;19.88;47.80;102012.25;5015597;28;45358;-81
2022/05/06 10:47:00;;;;;;;;;6.25;5.75;;;;;20.02;48.02;102011.22;5015485;28;45475;-81
2022/05/06 10:49:34;;;;;;;;;12.25;10.25;;;;;20.13;46.30;102011.28;4997549;28;45566;-80
2022/05/06 10:52:19;;;;;;;;;8.25;7.50;;;;;20.25;45.98;101998.63;5014605;28;45468;-81
2022/05/06 10:54:49;;;;;;;;;9.00;8.50;;;;;20.43;46.01;102001.78;5014838;28;46222;-81
2022/05/06 10:57:17;;;;;;;;;13.25;10.00;;;;;20.48;44.48;101982.47;5015131;28;45279;-81
2022/05/06 10:59:55;;;;;;;;;9.00;7.75;;;;;20.66;45.38;101989.19;5015557;28;45499;-81
2022/05/06 11:02:29;;;;;;;;;11.00;9.25;;;;;20.79;44.97;101991.78;5008999;28;45582;-79
2022/05/06 11:04:57;;;;;;;;;9.75;8.25;;;;;20.85;45.10;101985.84;4995733;28;46155;-79
2022/05/06 11:07:23;;;;;;;;;7.00;6.75;;;;;21.09;44.45;101984.88;5014480;28;45471;-80
2022/05/06 11:09:49;;;;;;;;;8.00;8.00;;;;;21.08;43.79;101954.22;5014020;28;45567;-79
2022/05/06 11:12:38;;;;;;;;;7.50;7.50;;;;;21.46;42.93;101991.75;4996788;28;45481;-80
2022/05/06 11:15:09;;;;;;;;;7.25;7.25;;;;;21.72;44.32;101977.00;4996146;28;48131;-80
2022/05/06 11:17:35;;;;;;;;;8.75;8.75;;;;;21.82;42.88;101980.69;5014638;28;45385;-80
2022/05/06 11:20:13;;;;;;;;;9.00;9.00;;;;;21.80;42.37;101978.09;4996827;28;45468;-79
2022/05/06 11:23:02;;;;;;;;;10.75;10.75;;;;;21.74;42.17;101970.47;4996869;28;45369;-79
2022/05/06 11:25:52;;;;;;;;;9.50;8.50;;;;;21.82;41.60;101980.69;5014497;28;47282;-80
2022/05/06 11:28:20;;;;;;;;;6.00;6.00;;;;;21.74;42.53;101953.34;5012276;28;45307;-80
2022/05/06 11:30:51;;;;;;;;;7.50;7.50;;;;;22.06;42.12;101981.34;5012946;28;45485;-79
2022/05/06 11:33:27;;;;;;;;;9.00;8.50;;;;;22.16;39.21;101975.97;5013346;28;45330;-80
2022/05/06 11:36:03;;;;;;;;;7.75;7.75;;;;;22.19;40.65;101974.84;5013992;28;46475;-80
2022/05/06 11:38:39;;;;;;;;;10.75;8.00;;;;;22.30;41.32;101959.41;4998654;28;45631;-80
2022/05/06 11:41:12;;;;;;;;;9.50;9.25;;;;;22.31;41.28;101946.69;5014027;28;45340;-80
2022/05/06 11:43:39;;;;;;;;;7.75;7.00;;;;;22.48;40.38;101947.94;5011167;28;45419;-80
2022/05/06 11:48:49;;;;;;;;;10.50;9.00;;;;;22.47;40.76;101954.38;5014113;28;45495;-80
2022/05/06 11:51:27;;;;;;;;;7.00;7.00;;;;;22.37;41.04;101940.75;5014004;28;45365;-80
2022/05/06 11:53:53;;;;;;;;;10.00;10.00;;;;;22.42;40.58;101952.06;5013354;28;45425;-80
2022/05/06 11:56:21;;;;;;;;;9.00;9.00;;;;;22.44;40.82;101962.75;5014040;28;46494;-80
2022/05/06 11:58:47;;;;;;;;;10.75;10.75;;;;;22.43;40.85;101967.31;5014651;28;45380;-80